WEATHER DATA

YESTERDAY
Time Temp. Dewp. Hum. Wind dir Wind speed Wind gust Bar. 1h Prec. 24h Prec.
00:06 14.7 12.4 86 206 0.8 2.2 1014.2 0.0000 0.0000
00:19 14.5 12.4 87 206 0.8 2.2 1014.3 0.0000 0.0000
00:25 14.5 12.4 87 206 0.8 2.2 1014.3 0.0000 0.0000
00:40 14.4 12.3 87 206 0.8 2.2 1014.3 0.0000 0.0000
00:50 14.3 12.2 87 206 0.8 2.2 1014.3 0.0000 0.0000
00:59 14.2 12.1 87 206 0.8 2.2 1014.5 0.0000 0.0000
01:10 14.2 12.2 88 206 0.8 2.2 1014.5 0.0000 0.0000
01:19 14.1 12.1 88 206 0.8 2.2 1014.5 0.0000 0.0000
01:29 14 12 88 206 0.8 2.2 1014.6 0.0000 0.0000
01:40 14 12 88 206 0.8 2.2 1014.7 0.0000 0.0000
01:49 14 12 88 206 0.8 2.2 1014.6 0.0000 0.0000
01:59 13.9 11.9 88 206 0.8 2.2 1014.6 0.0000 0.0000
02:10 13.9 11.9 88 206 0.8 2.2 1014.5 0.0000 0.0000
02:19 13.9 11.9 88 206 0.8 2.2 1014.5 0.0000 0.0000
02:29 13.9 11.9 88 206 0.8 2.2 1014.5 0.0000 0.0000
02:40 13.9 11.9 88 206 0.8 2.2 1014.4 0.0000 0.0000
02:50 13.8 12 89 206 0.8 2.2 1014.4 0.0000 0.0000
03:00 13.8 12 89 206 0.8 2.2 1014.4 0.0000 0.0000
03:10 13.8 12 89 206 0.8 2.2 1014.5 0.0000 0.0000
03:20 13.7 11.9 89 206 0.8 2.2 1014.5 0.0000 0.0000
03:31 13.7 11.9 89 206 0.8 2.2 1014.4 0.0000 0.0000
03:40 13.7 11.9 89 206 0.8 2.2 1014.5 0.0000 0.0000
03:50 13.6 11.8 89 206 0.8 2.2 1014.5 0.0000 0.0000
04:01 13.5 11.7 89 206 0.8 2.2 1014.6 0.0000 0.0000
04:11 13.5 11.7 89 206 0.8 2.2 1014.5 0.0000 0.0000
04:20 13.5 11.7 89 206 0.8 2.2 1014.5 0.0000 0.0000
04:30 13.4 11.6 89 206 0.8 2.2 1014.5 0.0000 0.0000
04:40 13.3 11.5 89 206 0.8 2.2 1014.6 0.0000 0.0000
04:49 13.3 11.5 89 206 0.8 2.2 1014.6 0.0000 0.0000
05:01 13.2 11.4 89 206 0.8 2.2 1014.6 0.0000 0.0000
05:11 13.1 11.3 89 206 0.8 2.2 1014.7 0.0000 0.0000
05:22 13 11.2 89 206 0.8 2.2 1014.7 0.0000 0.0000
05:32 12.9 11.1 89 206 0.8 2.2 1014.8 0.0000 0.0000
05:41 12.9 11.1 89 206 0.8 2.2 1014.7 0.0000 0.0000
05:52 12.8 11 89 206 0.8 2.2 1014.9 0.0000 0.0000
06:02 12.8 11 89 206 0.8 2.2 1014.9 0.0000 0.0000
06:12 12.8 11 89 206 0.8 2.2 1015 0.0000 0.0000
06:22 12.8 11 89 206 0.8 2.2 1015.1 0.0000 0.0000
06:32 12.8 11.2 90 206 0.8 2.2 1015.1 0.0000 0.0000
06:41 12.8 11.2 90 206 0.8 2.2 1015.2 0.0000 0.0000
06:52 12.9 11.3 90 206 0.8 2.2 1015.3 0.0000 0.0000
07:01 12.9 11.3 90 206 0.8 2.2 1015.4 0.0000 0.0000
07:12 13 11.6 91 206 0.8 2.2 1015.7 0.0000 0.0000
07:22 13.1 11.7 91 206 0.8 2.2 1015.8 0.0000 0.0000
07:32 13.2 11.8 91 206 0.8 2.2 1016 0.1034 0.1000
07:42 13.3 11.9 91 206 0.8 2.2 1016.1 0.1034 0.1000
07:52 13.4 12 91 206 0.8 2.2 1016.2 0.1034 0.1000
08:02 13.6 12.2 91 206 0.8 2.2 1016.2 0.1034 0.1000
08:13 13.7 12.4 92 206 0.8 2.2 1016.4 0.1034 0.1000
08:22 13.9 12.6 92 206 0.8 2.2 1016.4 0.1034 0.1000
08:32 14.1 12.8 92 206 0.8 2.2 1016.5 0.0000 0.1000
08:43 14.3 13 92 206 0.8 2.2 1016.6 0.0000 0.1000
08:53 14.6 13.3 92 206 0.8 2.2 1016.6 0.0000 0.1000
09:02 15 13.7 92 206 0.8 2.2 1016.7 0.0000 0.1000
09:12 15.3 14 92 206 0.8 2.2 1016.8 0.0000 0.1000
09:22 15.7 14.2 91 206 0.8 2.2 1016.8 0.0000 0.1000
09:31 16.2 14.7 91 206 0.8 2.2 1016.9 0.0000 0.1000
09:43 16.8 15.3 91 206 0.8 2.2 1016.9 0.0000 0.1000
09:53 17.2 15.5 90 206 0.8 2.2 1017 0.0000 0.1000
10:03 17.7 15.7 88 206 0.8 2.2 1017 0.0000 0.1000
10:22 18.7 16.1 85 206 0.8 2.2 1017.2 0.0000 0.1000
10:30 19.5 16.5 83 206 0.8 2.2 1017.2 0.0000 0.1000
10:37 20.1 16.7 81 206 0.8 2.2 1017.3 0.0000 0.1000
10:52 20.7 16.7 78 206 0.8 2.2 1017.3 0.0000 0.1000
11:03 20.8 16.6 77 206 0.8 2.2 1017.4 0.0000 0.1000
11:10 21.2 16.6 75 206 0.8 2.2 1018.3 0.2068 0.3000
12:14 19.7 14.7 73 206 0.8 2.2 1018.4 0.2068 0.3000
12:23 19.4 14.9 75 206 0.8 2.2 1018.5 0.2068 0.3000
12:31 19.1 14.6 75 206 0.8 2.2 1018.6 0.2068 0.3000
12:40 18.7 14.2 75 206 0.8 2.2 1018.7 0.3103 0.4000
12:55 18.3 14.4 78 206 0.8 2.2 1018.7 0.2068 0.5000
13:05 18 14.3 79 206 0.8 2.2 1018.7 0.2068 0.5000
13:13 17.8 14.5 81 206 0.8 2.2 1018.7 0.3103 0.6000
13:21 17.8 14.7 82 206 0.8 2.2 1018.8 0.3103 0.6000
13:36 17.7 14.8 83 206 0.8 2.2 1018.8 0.3103 0.6000
13:45 17.8 14.9 83 206 0.8 2.2 1018.7 0.2068 0.6000
13:54 17.8 14.9 83 206 0.8 2.2 1018.7 0.1034 0.6000
14:03 17.9 15.2 84 206 0.8 2.2 1018.5 0.0000 0.6000
14:16 18 15.4 85 206 0.8 2.2 1018.5 0.1034 0.7000
14:26 18.1 15.5 85 206 0.8 2.2 1018.4 0.1034 0.7000
14:35 18.2 15.6 85 206 0.8 2.2 1018.4 0.1034 0.7000
14:45 18.2 15.6 85 206 0.8 2.2 1018.4 0.1034 0.7000
14:53 18.3 15.7 85 206 0.8 2.2 1018.3 0.1034 0.7000
15:05 18.6 16 85 206 0.8 2.2 1018.2 0.0000 0.7000
15:16 18.8 16.2 85 206 0.8 2.2 1018.1 0.0000 0.7000
15:26 19 16.4 85 206 0.8 2.2 1018.1 0.0000 0.7000
15:34 19.1 16.3 84 206 0.8 2.2 1018 0.0000 0.7000
15:46 19.4 16.4 83 206 0.8 2.2 1017.7 0.0000 0.7000
15:57 19.7 16.5 82 206 0.8 2.2 1017.6 0.0000 0.7000
16:05 19.8 16.4 81 206 0.8 2.2 1017.5 0.0000 0.7000
16:15 20 16.8 82 206 0.8 2.2 1017.4 0.0000 0.7000
16:22 20.1 16.7 81 206 0.8 2.2 1017.4 0.0000 0.7000
16:36 20.3 16.9 81 206 0.8 2.2 1017.3 0.0000 0.7000
16:46 20.5 16.9 80 206 0.8 2.2 1017.3 0.0000 0.7000
16:55 20.6 16.8 79 206 0.8 2.2 1017.1 0.0000 0.7000
17:02 20.7 16.7 78 206 0.8 2.2 1017 0.0000 0.7000
17:17 21 16.4 75 206 0.8 2.2 1017.1 0.0000 0.7000
17:25 21.2 16.4 74 206 0.8 2.2 1017.2 0.0000 0.7000
17:35 21.3 16.3 73 206 0.8 2.2 1017.1 0.0000 0.7000
17:42 21.3 16.3 73 206 0.8 2.2 1017.2 0.0000 0.7000
17:51 21.3 16.1 72 206 0.8 2.2 1017.1 0.0000 0.7000
18:05 21.5 16 71 206 0.8 2.2 1017.1 0.0000 0.7000
18:14 21.6 15.7 69 206 0.8 2.2 1017.1 0.0000 0.7000
18:23 21.6 15.7 69 206 0.8 2.2 1017.1 0.0000 0.7000
18:30 21.6 15.7 69 206 0.8 2.2 1017.2 0.0000 0.7000
18:46 21.7 15.8 69 206 0.8 2.2 1017.2 0.0000 0.7000
18:55 21.6 15.4 68 206 0.8 2.2 1017.2 0.0000 0.7000
19:03 21.6 15.4 68 206 0.8 2.2 1017.3 0.0000 0.7000
19:10 21.5 15.4 68 206 0.8 2.2 1017.4 0.0000 0.7000
19:26 21.6 14.7 65 206 0.8 2.2 1017.4 0.0000 0.7000
19:34 21.6 14.7 65 206 0.8 2.2 1017.4 0.0000 0.7000
19:42 21.6 14.7 65 206 0.8 2.2 1017.4 0.0000 0.7000
19:58 21.5 14.4 64 206 0.8 2.2 1017.4 0.0000 0.7000
20:06 21.5 14.2 63 206 0.8 2.2 1017.3 0.0000 0.7000
20:15 21.4 13.8 62 206 0.8 2.2 1017.4 0.0000 0.7000
20:23 21.3 13.7 62 206 0.8 2.2 1017.5 0.0000 0.7000
20:38 21 13.4 62 206 0.8 2.2 1017.6 0.0000 0.7000
20:46 20.8 13.3 62 206 0.8 2.2 1017.6 0.0000 0.7000
20:54 20.6 13.6 64 206 0.8 2.2 1017.6 0.0000 0.7000
21:02 20.2 13.2 64 206 0.8 2.2 1017.7 0.0000 0.7000
21:18 19.7 13.4 67 206 0.8 2.2 1017.7 0.0000 0.7000
21:27 19.3 13.5 69 206 0.8 2.2 1018 0.0000 0.7000
21:34 19 13.2 69 206 0.8 2.2 1018.2 0.0000 0.7000
21:43 18.7 13.1 70 206 0.8 2.2 1018.3 0.0000 0.7000
21:58 18.2 12.9 71 206 0.8 2.2 1018.4 0.0000 0.7000
22:08 17.8 12.5 71 206 0.8 2.2 1018.5 0.0000 0.7000
22:17 17.5 12.4 72 206 0.8 2.2 1018.5 0.0000 0.7000
22:28 17.2 12.1 72 206 0.8 2.2 1018.5 0.0000 0.7000
22:37 16.9 11.8 72 206 0.8 2.2 1018.6 0.0000 0.7000
22:48 16.6 11.3 71 206 0.8 2.2 1018.6 0.0000 0.7000
22:58 16.4 11.3 72 206 0.8 2.2 1018.7 0.0000 0.7000
23:08 16.2 11.2 72 206 0.8 2.2 1018.7 0.0000 0.7000
23:17 16.1 10.8 71 206 0.8 2.2 1018.7 0.0000 0.7000
23:28 16.1 10.6 70 206 0.8 2.2 1018.8 0.0000 0.7000
23:37 16.2 10.7 70 206 0.8 2.2 1018.8 0.0000 0.7000
23:48 16.2 10.5 69 206 0.8 2.2 1018.7 0.0000 0.7000
23:58 16.2 10.3 68 206 0.8 2.2 1018.6 0.0000 0.7000

DAY STATISTIC

2018-05-23
TEMPERATURE
AVERAGE
17.0
HIGH
21.7
18:46
LOW
12.8
05:52
PRESSURE
AVERAGE
1016.7
HIGH
1018.8
13:21
LOW
1014.2
00:06
DEWPOINT
AVERAGE
13.6
HIGH
16.9
16:36
LOW
10.3
23:58
HUMIDITY
AVERAGE
81
HIGH
92
08:13
LOW
62
20:15
WIND SPEED
AVERAGE
0.8
HIGH
0.8
00:06
WIND GUST
AVERAGE
2.2
HIGH
2.2
00:06
WIND DIRECTION
PREVAILING
SW
100%
N
0.0
NE
0.0
E
0.0
SE
0.0
S
0.0
SW
100.0
W
0.0
NW
0.0
PRECIPITATION
RAIN HOUR
0.3
RAIN DAY
0.7
TEMPERATURE (°C)
LOW
12.8
HIGH
21.7
AVERAGE
17.0
PRESSURE (hpa)
LOW
1014.2
HIGH
1018.8
AVERAGE
1016.7
DEVICE